sensor_id;sensor_type;location;lat;lon;timestamp;P1;durP1;ratioP1;P2;durP2;ratioP2
16665;SDS011;8446;50.998;6.250;2023-12-20T00:01:58;19.50;;;9.70;;
16665;SDS011;8446;50.998;6.250;2023-12-20T00:04:24;21.98;;;11.05;;
16665;SDS011;8446;50.998;6.250;2023-12-20T00:06:51;18.08;;;9.73;;
16665;SDS011;8446;50.998;6.250;2023-12-20T00:09:19;23.52;;;9.13;;
16665;SDS011;8446;50.998;6.250;2023-12-20T00:11:46;15.77;;;8.67;;
16665;SDS011;8446;50.998;6.250;2023-12-20T00:14:13;20.50;;;9.20;;
16665;SDS011;8446;50.998;6.250;2023-12-20T00:16:39;24.97;;;8.20;;
16665;SDS011;8446;50.998;6.250;2023-12-20T00:19:06;19.50;;;9.37;;
16665;SDS011;8446;50.998;6.250;2023-12-20T00:21:33;31.30;;;10.05;;
16665;SDS011;8446;50.998;6.250;2023-12-20T00:24:00;20.80;;;9.70;;
16665;SDS011;8446;50.998;6.250;2023-12-20T00:26:28;24.10;;;10.30;;
16665;SDS011;8446;50.998;6.250;2023-12-20T00:28:54;20.92;;;8.88;;
16665;SDS011;8446;50.998;6.250;2023-12-20T00:31:21;23.58;;;11.95;;
16665;SDS011;8446;50.998;6.250;2023-12-20T00:33:48;18.38;;;10.65;;
16665;SDS011;8446;50.998;6.250;2023-12-20T00:36:15;31.10;;;12.77;;
16665;SDS011;8446;50.998;6.250;2023-12-20T00:38:41;28.17;;;11.82;;
16665;SDS011;8446;50.998;6.250;2023-12-20T00:41:08;30.95;;;12.30;;
16665;SDS011;8446;50.998;6.250;2023-12-20T00:43:36;20.63;;;10.68;;
16665;SDS011;8446;50.998;6.250;2023-12-20T00:46:03;24.77;;;9.90;;
16665;SDS011;8446;50.998;6.250;2023-12-20T00:48:30;20.85;;;10.20;;
16665;SDS011;8446;50.998;6.250;2023-12-20T00:50:57;23.02;;;8.43;;
16665;SDS011;8446;50.998;6.250;2023-12-20T00:53:24;16.83;;;8.10;;
16665;SDS011;8446;50.998;6.250;2023-12-20T00:55:51;21.27;;;8.60;;
16665;SDS011;8446;50.998;6.250;2023-12-20T00:58:17;23.70;;;7.30;;
16665;SDS011;8446;50.998;6.250;2023-12-20T01:00:45;12.68;;;6.60;;
16665;SDS011;8446;50.998;6.250;2023-12-20T01:03:12;20.05;;;6.22;;
16665;SDS011;8446;50.998;6.250;2023-12-20T01:05:40;21.73;;;7.35;;
16665;SDS011;8446;50.998;6.250;2023-12-20T01:08:07;12.60;;;6.00;;
16665;SDS011;8446;50.998;6.250;2023-12-20T01:10:33;23.33;;;4.85;;
16665;SDS011;8446;50.998;6.250;2023-12-20T01:13:00;11.02;;;4.38;;
16665;SDS011;8446;50.998;6.250;2023-12-20T01:15:27;12.88;;;4.50;;
16665;SDS011;8446;50.998;6.250;2023-12-20T01:17:55;15.63;;;3.90;;
16665;SDS011;8446;50.998;6.250;2023-12-20T01:20:23;10.98;;;3.55;;
16665;SDS011;8446;50.998;6.250;2023-12-20T01:22:50;21.20;;;3.45;;
16665;SDS011;8446;50.998;6.250;2023-12-20T01:25:17;19.73;;;3.90;;
16665;SDS011;8446;50.998;6.250;2023-12-20T01:27:44;12.88;;;2.88;;
16665;SDS011;8446;50.998;6.250;2023-12-20T01:30:11;12.48;;;3.55;;
16665;SDS011;8446;50.998;6.250;2023-12-20T01:32:38;12.43;;;2.50;;
16665;SDS011;8446;50.998;6.250;2023-12-20T01:35:07;8.20;;;2.70;;
16665;SDS011;8446;50.998;6.250;2023-12-20T01:37:33;12.95;;;2.40;;
16665;SDS011;8446;50.998;6.250;2023-12-20T01:40:00;19.38;;;3.03;;
16665;SDS011;8446;50.998;6.250;2023-12-20T01:42:27;6.70;;;2.35;;
16665;SDS011;8446;50.998;6.250;2023-12-20T01:44:54;30.85;;;2.85;;
16665;SDS011;8446;50.998;6.250;2023-12-20T01:47:21;14.82;;;3.13;;
16665;SDS011;8446;50.998;6.250;2023-12-20T01:49:48;7.10;;;1.90;;
16665;SDS011;8446;50.998;6.250;2023-12-20T01:52:16;12.25;;;3.08;;
16665;SDS011;8446;50.998;6.250;2023-12-20T01:54:43;16.27;;;2.72;;
16665;SDS011;8446;50.998;6.250;2023-12-20T01:57:10;5.53;;;2.38;;
16665;SDS011;8446;50.998;6.250;2023-12-20T01:59:37;12.80;;;2.95;;
16665;SDS011;8446;50.998;6.250;2023-12-20T02:02:06;12.88;;;3.40;;
16665;SDS011;8446;50.998;6.250;2023-12-20T02:04:34;7.95;;;2.40;;
16665;SDS011;8446;50.998;6.250;2023-12-20T02:07:01;17.92;;;3.15;;
16665;SDS011;8446;50.998;6.250;2023-12-20T02:09:31;14.98;;;2.53;;
16665;SDS011;8446;50.998;6.250;2023-12-20T02:11:58;10.60;;;2.13;;
16665;SDS011;8446;50.998;6.250;2023-12-20T02:14:25;12.40;;;2.00;;
16665;SDS011;8446;50.998;6.250;2023-12-20T02:16:52;8.32;;;2.40;;
16665;SDS011;8446;50.998;6.250;2023-12-20T02:19:19;10.65;;;3.30;;
16665;SDS011;8446;50.998;6.250;2023-12-20T02:21:48;14.43;;;2.53;;
16665;SDS011;8446;50.998;6.250;2023-12-20T02:24:14;13.13;;;2.67;;
16665;SDS011;8446;50.998;6.250;2023-12-20T02:26:42;16.70;;;3.15;;
16665;SDS011;8446;50.998;6.250;2023-12-20T02:29:09;7.60;;;2.65;;
16665;SDS011;8446;50.998;6.250;2023-12-20T02:31:36;14.25;;;2.67;;
16665;SDS011;8446;50.998;6.250;2023-12-20T02:34:03;6.30;;;2.50;;
16665;SDS011;8446;50.998;6.250;2023-12-20T02:36:30;15.32;;;2.47;;
16665;SDS011;8446;50.998;6.250;2023-12-20T02:38:58;22.17;;;2.72;;
16665;SDS011;8446;50.998;6.250;2023-12-20T02:41:25;19.15;;;2.85;;
16665;SDS011;8446;50.998;6.250;2023-12-20T02:43:51;4.65;;;2.90;;
16665;SDS011;8446;50.998;6.250;2023-12-20T02:46:18;8.52;;;2.25;;
16665;SDS011;8446;50.998;6.250;2023-12-20T02:48:45;16.15;;;3.75;;
16665;SDS011;8446;50.998;6.250;2023-12-20T02:51:12;13.80;;;3.25;;
16665;SDS011;8446;50.998;6.250;2023-12-20T02:53:39;13.55;;;3.83;;
16665;SDS011;8446;50.998;6.250;2023-12-20T02:56:07;10.25;;;3.08;;
16665;SDS011;8446;50.998;6.250;2023-12-20T02:58:34;8.35;;;2.65;;
16665;SDS011;8446;50.998;6.250;2023-12-20T03:01:01;11.55;;;3.63;;
16665;SDS011;8446;50.998;6.250;2023-12-20T03:03:29;29.20;;;3.00;;
16665;SDS011;8446;50.998;6.250;2023-12-20T03:05:55;17.15;;;3.70;;
16665;SDS011;8446;50.998;6.250;2023-12-20T03:08:22;14.75;;;2.90;;
16665;SDS011;8446;50.998;6.250;2023-12-20T03:10:49;29.05;;;3.30;;
16665;SDS011;8446;50.998;6.250;2023-12-20T03:13:17;10.73;;;3.13;;
16665;SDS011;8446;50.998;6.250;2023-12-20T03:15:45;9.48;;;3.05;;
16665;SDS011;8446;50.998;6.250;2023-12-20T03:18:11;10.07;;;2.67;;
16665;SDS011;8446;50.998;6.250;2023-12-20T03:20:38;12.07;;;2.88;;
16665;SDS011;8446;50.998;6.250;2023-12-20T03:23:06;12.15;;;3.83;;
16665;SDS011;8446;50.998;6.250;2023-12-20T03:25:33;12.23;;;3.00;;
16665;SDS011;8446;50.998;6.250;2023-12-20T03:27:59;26.55;;;3.15;;
16665;SDS011;8446;50.998;6.250;2023-12-20T03:30:28;17.85;;;3.85;;
16665;SDS011;8446;50.998;6.250;2023-12-20T03:32:54;8.63;;;2.40;;
16665;SDS011;8446;50.998;6.250;2023-12-20T03:35:21;11.85;;;3.67;;
16665;SDS011;8446;50.998;6.250;2023-12-20T03:37:48;21.92;;;3.20;;
16665;SDS011;8446;50.998;6.250;2023-12-20T03:40:14;10.52;;;3.53;;
16665;SDS011;8446;50.998;6.250;2023-12-20T03:42:41;9.38;;;2.88;;
16665;SDS011;8446;50.998;6.250;2023-12-20T03:45:08;14.70;;;3.80;;
16665;SDS011;8446;50.998;6.250;2023-12-20T03:47:37;14.95;;;4.78;;
16665;SDS011;8446;50.998;6.250;2023-12-20T03:50:04;17.98;;;4.40;;
16665;SDS011;8446;50.998;6.250;2023-12-20T03:52:31;14.02;;;3.55;;
16665;SDS011;8446;50.998;6.250;2023-12-20T03:54:58;23.48;;;4.25;;
16665;SDS011;8446;50.998;6.250;2023-12-20T03:57:25;7.65;;;4.22;;
16665;SDS011;8446;50.998;6.250;2023-12-20T03:59:52;5.47;;;1.92;;
16665;SDS011;8446;50.998;6.250;2023-12-20T04:02:18;12.23;;;3.53;;
16665;SDS011;8446;50.998;6.250;2023-12-20T04:04:47;7.63;;;3.03;;
16665;SDS011;8446;50.998;6.250;2023-12-20T04:07:14;24.10;;;3.95;;
16665;SDS011;8446;50.998;6.250;2023-12-20T04:09:40;14.23;;;4.72;;
16665;SDS011;8446;50.998;6.250;2023-12-20T04:12:07;15.98;;;3.22;;
16665;SDS011;8446;50.998;6.250;2023-12-20T04:14:34;9.38;;;3.03;;
16665;SDS011;8446;50.998;6.250;2023-12-20T04:17:01;30.10;;;4.03;;
16665;SDS011;8446;50.998;6.250;2023-12-20T04:19:27;21.63;;;3.60;;
16665;SDS011;8446;50.998;6.250;2023-12-20T04:21:56;11.90;;;3.95;;
16665;SDS011;8446;50.998;6.250;2023-12-20T04:24:22;6.40;;;2.63;;
16665;SDS011;8446;50.998;6.250;2023-12-20T04:26:49;20.52;;;4.85;;
16665;SDS011;8446;50.998;6.250;2023-12-20T04:29:16;13.07;;;4.35;;
16665;SDS011;8446;50.998;6.250;2023-12-20T04:31:43;15.77;;;5.35;;
16665;SDS011;8446;50.998;6.250;2023-12-20T04:34:10;7.78;;;3.13;;
16665;SDS011;8446;50.998;6.250;2023-12-20T04:36:36;12.90;;;4.25;;
16665;SDS011;8446;50.998;6.250;2023-12-20T04:39:04;17.58;;;3.72;;
16665;SDS011;8446;50.998;6.250;2023-12-20T04:41:31;15.43;;;4.57;;
16665;SDS011;8446;50.998;6.250;2023-12-20T04:43:58;20.42;;;3.60;;
16665;SDS011;8446;50.998;6.250;2023-12-20T04:46:25;38.30;;;3.97;;
16665;SDS011;8446;50.998;6.250;2023-12-20T04:48:52;3.25;;;2.60;;
16665;SDS011;8446;50.998;6.250;2023-12-20T04:51:19;15.18;;;3.35;;
16665;SDS011;8446;50.998;6.250;2023-12-20T04:53:46;11.18;;;4.30;;
16665;SDS011;8446;50.998;6.250;2023-12-20T04:56:14;14.50;;;4.20;;
16665;SDS011;8446;50.998;6.250;2023-12-20T04:58:41;36.72;;;4.30;;
16665;SDS011;8446;50.998;6.250;2023-12-20T05:01:08;19.88;;;4.35;;
16665;SDS011;8446;50.998;6.250;2023-12-20T05:03:35;16.77;;;4.20;;
16665;SDS011;8446;50.998;6.250;2023-12-20T05:06:02;12.20;;;3.00;;
16665;SDS011;8446;50.998;6.250;2023-12-20T05:08:29;19.70;;;3.53;;
16665;SDS011;8446;50.998;6.250;2023-12-20T05:10:56;9.25;;;2.53;;
16665;SDS011;8446;50.998;6.250;2023-12-20T05:13:25;18.27;;;3.80;;
16665;SDS011;8446;50.998;6.250;2023-12-20T05:15:51;7.03;;;2.63;;
16665;SDS011;8446;50.998;6.250;2023-12-20T05:18:18;22.48;;;5.80;;
16665;SDS011;8446;50.998;6.250;2023-12-20T05:20:46;10.57;;;2.72;;
16665;SDS011;8446;50.998;6.250;2023-12-20T05:23:13;15.75;;;4.05;;
16665;SDS011;8446;50.998;6.250;2023-12-20T05:25:39;15.98;;;3.80;;
16665;SDS011;8446;50.998;6.250;2023-12-20T05:28:06;10.55;;;3.38;;
16665;SDS011;8446;50.998;6.250;2023-12-20T05:30:34;12.65;;;4.03;;
16665;SDS011;8446;50.998;6.250;2023-12-20T05:33:01;18.75;;;3.58;;
16665;SDS011;8446;50.998;6.250;2023-12-20T05:35:28;11.65;;;3.28;;
16665;SDS011;8446;50.998;6.250;2023-12-20T05:37:55;17.67;;;4.03;;
16665;SDS011;8446;50.998;6.250;2023-12-20T05:40:21;8.90;;;3.05;;
16665;SDS011;8446;50.998;6.250;2023-12-20T05:42:48;10.35;;;3.13;;
16665;SDS011;8446;50.998;6.250;2023-12-20T05:45:15;16.70;;;4.05;;
16665;SDS011;8446;50.998;6.250;2023-12-20T05:47:43;16.38;;;3.60;;
16665;SDS011;8446;50.998;6.250;2023-12-20T05:50:10;13.35;;;3.28;;
16665;SDS011;8446;50.998;6.250;2023-12-20T05:52:37;11.02;;;3.30;;
16665;SDS011;8446;50.998;6.250;2023-12-20T05:55:04;15.32;;;3.28;;
16665;SDS011;8446;50.998;6.250;2023-12-20T05:57:31;13.63;;;3.95;;
16665;SDS011;8446;50.998;6.250;2023-12-20T05:59:57;27.20;;;4.50;;
16665;SDS011;8446;50.998;6.250;2023-12-20T06:02:24;13.90;;;3.92;;
16665;SDS011;8446;50.998;6.250;2023-12-20T06:04:52;16.15;;;3.95;;
16665;SDS011;8446;50.998;6.250;2023-12-20T06:07:19;18.63;;;3.85;;
16665;SDS011;8446;50.998;6.250;2023-12-20T06:09:46;18.50;;;3.67;;
16665;SDS011;8446;50.998;6.250;2023-12-20T06:12:13;9.15;;;2.53;;
16665;SDS011;8446;50.998;6.250;2023-12-20T06:14:39;20.75;;;3.55;;
16665;SDS011;8446;50.998;6.250;2023-12-20T06:17:06;16.17;;;4.20;;
16665;SDS011;8446;50.998;6.250;2023-12-20T06:19:33;17.58;;;3.63;;
16665;SDS011;8446;50.998;6.250;2023-12-20T06:22:01;16.50;;;4.35;;
16665;SDS011;8446;50.998;6.250;2023-12-20T06:24:28;14.65;;;3.97;;
16665;SDS011;8446;50.998;6.250;2023-12-20T06:26:55;15.77;;;3.80;;
16665;SDS011;8446;50.998;6.250;2023-12-20T06:29:22;20.92;;;5.20;;
16665;SDS011;8446;50.998;6.250;2023-12-20T06:31:49;20.42;;;3.92;;
16665;SDS011;8446;50.998;6.250;2023-12-20T06:34:16;15.32;;;4.43;;
16665;SDS011;8446;50.998;6.250;2023-12-20T06:36:42;34.30;;;4.68;;
16665;SDS011;8446;50.998;6.250;2023-12-20T06:39:11;21.73;;;5.45;;
16665;SDS011;8446;50.998;6.250;2023-12-20T06:41:39;13.00;;;4.60;;
16665;SDS011;8446;50.998;6.250;2023-12-20T06:44:05;11.63;;;3.85;;
16665;SDS011;8446;50.998;6.250;2023-12-20T06:46:31;25.98;;;5.15;;
16665;SDS011;8446;50.998;6.250;2023-12-20T06:48:59;12.48;;;4.22;;
16665;SDS011;8446;50.998;6.250;2023-12-20T06:51:26;24.05;;;4.93;;
16665;SDS011;8446;50.998;6.250;2023-12-20T06:53:53;15.93;;;4.55;;
16665;SDS011;8446;50.998;6.250;2023-12-20T06:56:21;19.20;;;4.72;;
16665;SDS011;8446;50.998;6.250;2023-12-20T06:58:48;11.35;;;4.57;;
16665;SDS011;8446;50.998;6.250;2023-12-20T07:01:15;9.80;;;3.70;;
16665;SDS011;8446;50.998;6.250;2023-12-20T07:03:42;37.38;;;4.80;;
16665;SDS011;8446;50.998;6.250;2023-12-20T07:06:09;26.40;;;3.90;;
16665;SDS011;8446;50.998;6.250;2023-12-20T07:08:36;20.75;;;5.20;;
16665;SDS011;8446;50.998;6.250;2023-12-20T07:11:03;19.63;;;4.70;;
16665;SDS011;8446;50.998;6.250;2023-12-20T07:13:31;22.10;;;4.28;;
16665;SDS011;8446;50.998;6.250;2023-12-20T07:15:58;15.07;;;4.15;;
16665;SDS011;8446;50.998;6.250;2023-12-20T07:18:23;15.93;;;4.80;;
16665;SDS011;8446;50.998;6.250;2023-12-20T07:20:50;21.80;;;3.95;;
16665;SDS011;8446;50.998;6.250;2023-12-20T07:23:18;14.95;;;4.00;;
16665;SDS011;8446;50.998;6.250;2023-12-20T07:25:45;18.77;;;5.90;;
16665;SDS011;8446;50.998;6.250;2023-12-20T07:28:12;12.90;;;5.20;;
16665;SDS011;8446;50.998;6.250;2023-12-20T07:30:40;12.95;;;2.75;;
16665;SDS011;8446;50.998;6.250;2023-12-20T07:33:07;15.30;;;4.32;;
16665;SDS011;8446;50.998;6.250;2023-12-20T07:35:34;8.57;;;3.20;;
16665;SDS011;8446;50.998;6.250;2023-12-20T07:38:01;20.58;;;6.20;;
16665;SDS011;8446;50.998;6.250;2023-12-20T07:40:28;20.08;;;5.15;;
16665;SDS011;8446;50.998;6.250;2023-12-20T07:42:55;13.57;;;4.20;;
16665;SDS011;8446;50.998;6.250;2023-12-20T07:45:23;21.50;;;4.75;;
16665;SDS011;8446;50.998;6.250;2023-12-20T07:47:51;20.85;;;5.18;;
16665;SDS011;8446;50.998;6.250;2023-12-20T07:50:18;25.80;;;5.55;;
16665;SDS011;8446;50.998;6.250;2023-12-20T07:52:45;7.63;;;2.83;;
16665;SDS011;8446;50.998;6.250;2023-12-20T07:55:12;13.57;;;4.28;;
16665;SDS011;8446;50.998;6.250;2023-12-20T07:57:38;8.95;;;3.50;;
16665;SDS011;8446;50.998;6.250;2023-12-20T08:00:05;18.63;;;4.40;;
16665;SDS011;8446;50.998;6.250;2023-12-20T08:02:33;11.43;;;4.40;;
16665;SDS011;8446;50.998;6.250;2023-12-20T08:05:01;11.00;;;3.38;;
16665;SDS011;8446;50.998;6.250;2023-12-20T08:07:28;9.82;;;3.42;;
16665;SDS011;8446;50.998;6.250;2023-12-20T08:09:54;14.25;;;3.75;;
16665;SDS011;8446;50.998;6.250;2023-12-20T08:12:22;18.17;;;3.67;;
16665;SDS011;8446;50.998;6.250;2023-12-20T08:14:48;17.23;;;4.13;;
16665;SDS011;8446;50.998;6.250;2023-12-20T08:17:15;16.73;;;4.43;;
16665;SDS011;8446;50.998;6.250;2023-12-20T08:19:44;40.17;;;4.60;;
16665;SDS011;8446;50.998;6.250;2023-12-20T08:22:12;13.13;;;3.83;;
16665;SDS011;8446;50.998;6.250;2023-12-20T08:24:38;12.43;;;4.10;;
16665;SDS011;8446;50.998;6.250;2023-12-20T08:27:05;9.15;;;3.50;;
16665;SDS011;8446;50.998;6.250;2023-12-20T08:29:32;19.83;;;4.45;;
16665;SDS011;8446;50.998;6.250;2023-12-20T08:31:59;21.17;;;5.20;;
16665;SDS011;8446;50.998;6.250;2023-12-20T08:34:25;23.95;;;4.30;;
16665;SDS011;8446;50.998;6.250;2023-12-20T08:36:52;16.17;;;3.50;;
16665;SDS011;8446;50.998;6.250;2023-12-20T08:39:21;9.75;;;3.08;;
16665;SDS011;8446;50.998;6.250;2023-12-20T08:41:47;9.95;;;4.00;;
16665;SDS011;8446;50.998;6.250;2023-12-20T08:44:14;19.17;;;4.97;;
16665;SDS011;8446;50.998;6.250;2023-12-20T08:46:41;15.57;;;4.55;;
16665;SDS011;8446;50.998;6.250;2023-12-20T08:49:08;20.73;;;3.97;;
16665;SDS011;8446;50.998;6.250;2023-12-20T08:51:35;17.30;;;4.53;;
16665;SDS011;8446;50.998;6.250;2023-12-20T08:54:05;8.48;;;3.42;;
16665;SDS011;8446;50.998;6.250;2023-12-20T08:56:34;22.95;;;3.95;;
16665;SDS011;8446;50.998;6.250;2023-12-20T08:59:01;10.55;;;3.95;;
16665;SDS011;8446;50.998;6.250;2023-12-20T09:01:27;15.65;;;3.30;;
16665;SDS011;8446;50.998;6.250;2023-12-20T09:03:54;14.80;;;3.55;;
16665;SDS011;8446;50.998;6.250;2023-12-20T09:06:21;19.30;;;4.03;;
16665;SDS011;8446;50.998;6.250;2023-12-20T09:08:49;17.23;;;4.35;;
16665;SDS011;8446;50.998;6.250;2023-12-20T09:11:15;24.85;;;4.13;;
16665;SDS011;8446;50.998;6.250;2023-12-20T09:13:44;23.23;;;4.30;;
16665;SDS011;8446;50.998;6.250;2023-12-20T09:16:11;24.08;;;3.88;;
16665;SDS011;8446;50.998;6.250;2023-12-20T09:18:38;21.77;;;5.40;;
16665;SDS011;8446;50.998;6.250;2023-12-20T09:21:05;5.18;;;2.50;;
16665;SDS011;8446;50.998;6.250;2023-12-20T09:23:32;12.77;;;3.45;;
16665;SDS011;8446;50.998;6.250;2023-12-20T09:25:58;15.95;;;3.53;;
16665;SDS011;8446;50.998;6.250;2023-12-20T09:28:25;21.65;;;4.15;;
16665;SDS011;8446;50.998;6.250;2023-12-20T09:30:53;12.48;;;3.88;;
16665;SDS011;8446;50.998;6.250;2023-12-20T09:33:20;12.75;;;3.78;;
16665;SDS011;8446;50.998;6.250;2023-12-20T09:35:47;15.52;;;3.58;;
16665;SDS011;8446;50.998;6.250;2023-12-20T09:38:14;12.30;;;3.20;;
16665;SDS011;8446;50.998;6.250;2023-12-20T09:40:42;13.75;;;3.90;;
16665;SDS011;8446;50.998;6.250;2023-12-20T09:43:10;17.20;;;3.88;;
16665;SDS011;8446;50.998;6.250;2023-12-20T09:45:39;9.85;;;3.40;;
16665;SDS011;8446;50.998;6.250;2023-12-20T09:48:08;14.40;;;3.90;;
16665;SDS011;8446;50.998;6.250;2023-12-20T09:50:37;22.05;;;4.88;;
16665;SDS011;8446;50.998;6.250;2023-12-20T09:53:04;7.18;;;3.15;;
16665;SDS011;8446;50.998;6.250;2023-12-20T09:55:34;11.80;;;2.92;;
16665;SDS011;8446;50.998;6.250;2023-12-20T09:58:02;17.05;;;3.42;;
16665;SDS011;8446;50.998;6.250;2023-12-20T10:00:29;13.88;;;4.30;;
16665;SDS011;8446;50.998;6.250;2023-12-20T10:02:57;15.35;;;3.90;;
16665;SDS011;8446;50.998;6.250;2023-12-20T10:05:27;18.70;;;3.22;;
16665;SDS011;8446;50.998;6.250;2023-12-20T10:07:55;22.10;;;5.50;;
16665;SDS011;8446;50.998;6.250;2023-12-20T10:10:22;20.92;;;3.38;;
16665;SDS011;8446;50.998;6.250;2023-12-20T10:13:00;15.00;;;4.40;;
16665;SDS011;8446;50.998;6.250;2023-12-20T10:15:28;16.52;;;4.93;;
16665;SDS011;8446;50.998;6.250;2023-12-20T10:17:55;15.93;;;3.47;;
16665;SDS011;8446;50.998;6.250;2023-12-20T10:20:23;11.90;;;3.60;;
16665;SDS011;8446;50.998;6.250;2023-12-20T10:22:51;11.90;;;3.75;;
16665;SDS011;8446;50.998;6.250;2023-12-20T10:25:19;19.10;;;3.50;;
16665;SDS011;8446;50.998;6.250;2023-12-20T10:27:46;21.80;;;3.45;;
16665;SDS011;8446;50.998;6.250;2023-12-20T10:30:13;14.77;;;3.60;;
16665;SDS011;8446;50.998;6.250;2023-12-20T10:32:40;14.52;;;4.20;;
16665;SDS011;8446;50.998;6.250;2023-12-20T10:35:07;26.90;;;4.00;;
16665;SDS011;8446;50.998;6.250;2023-12-20T10:37:35;23.70;;;4.20;;
16665;SDS011;8446;50.998;6.250;2023-12-20T10:40:04;9.75;;;3.08;;
16665;SDS011;8446;50.998;6.250;2023-12-20T10:42:32;19.13;;;3.20;;
16665;SDS011;8446;50.998;6.250;2023-12-20T10:44:59;33.95;;;3.13;;
16665;SDS011;8446;50.998;6.250;2023-12-20T10:47:26;12.27;;;3.25;;
16665;SDS011;8446;50.998;6.250;2023-12-20T10:49:57;12.02;;;3.40;;
16665;SDS011;8446;50.998;6.250;2023-12-20T10:52:26;8.68;;;2.80;;
16665;SDS011;8446;50.998;6.250;2023-12-20T10:54:55;12.10;;;1.85;;
16665;SDS011;8446;50.998;6.250;2023-12-20T10:57:23;13.75;;;2.28;;
16665;SDS011;8446;50.998;6.250;2023-12-20T10:59:53;20.50;;;3.33;;
16665;SDS011;8446;50.998;6.250;2023-12-20T11:02:21;24.17;;;3.85;;
16665;SDS011;8446;50.998;6.250;2023-12-20T11:04:50;25.77;;;3.35;;
16665;SDS011;8446;50.998;6.250;2023-12-20T11:07:28;18.50;;;3.65;;
16665;SDS011;8446;50.998;6.250;2023-12-20T11:09:59;10.60;;;2.92;;
16665;SDS011;8446;50.998;6.250;2023-12-20T11:12:35;13.63;;;3.67;;
16665;SDS011;8446;50.998;6.250;2023-12-20T11:15:06;20.27;;;4.82;;
16665;SDS011;8446;50.998;6.250;2023-12-20T11:17:33;21.05;;;3.55;;
16665;SDS011;8446;50.998;6.250;2023-12-20T11:20:03;25.02;;;4.40;;
16665;SDS011;8446;50.998;6.250;2023-12-20T11:22:32;21.40;;;3.80;;
16665;SDS011;8446;50.998;6.250;2023-12-20T11:25:02;16.20;;;3.67;;
16665;SDS011;8446;50.998;6.250;2023-12-20T11:27:31;18.90;;;3.65;;
16665;SDS011;8446;50.998;6.250;2023-12-20T11:29:59;20.17;;;4.18;;
16665;SDS011;8446;50.998;6.250;2023-12-20T11:32:31;16.40;;;3.95;;
16665;SDS011;8446;50.998;6.250;2023-12-20T11:35:00;18.15;;;3.28;;
16665;SDS011;8446;50.998;6.250;2023-12-20T11:37:38;18.80;;;3.70;;
16665;SDS011;8446;50.998;6.250;2023-12-20T11:40:08;17.02;;;4.40;;
16665;SDS011;8446;50.998;6.250;2023-12-20T11:42:41;12.52;;;3.90;;
16665;SDS011;8446;50.998;6.250;2023-12-20T11:45:09;5.78;;;3.22;;
16665;SDS011;8446;50.998;6.250;2023-12-20T11:47:36;17.70;;;4.53;;
16665;SDS011;8446;50.998;6.250;2023-12-20T11:50:03;26.88;;;5.55;;
16665;SDS011;8446;50.998;6.250;2023-12-20T11:52:30;16.85;;;4.70;;
16665;SDS011;8446;50.998;6.250;2023-12-20T11:54:57;19.92;;;4.40;;
16665;SDS011;8446;50.998;6.250;2023-12-20T11:57:24;18.02;;;5.10;;
16665;SDS011;8446;50.998;6.250;2023-12-20T11:59:53;38.47;;;5.00;;
16665;SDS011;8446;50.998;6.250;2023-12-20T12:02:19;17.40;;;3.90;;
16665;SDS011;8446;50.998;6.250;2023-12-20T12:04:48;14.73;;;4.88;;
16665;SDS011;8446;50.998;6.250;2023-12-20T12:07:15;8.25;;;3.72;;
16665;SDS011;8446;50.998;6.250;2023-12-20T12:09:42;18.98;;;4.15;;
16665;SDS011;8446;50.998;6.250;2023-12-20T12:12:09;13.30;;;4.60;;
16665;SDS011;8446;50.998;6.250;2023-12-20T12:14:37;9.27;;;2.85;;
16665;SDS011;8446;50.998;6.250;2023-12-20T12:17:11;12.02;;;4.45;;
16665;SDS011;8446;50.998;6.250;2023-12-20T12:19:38;20.27;;;3.58;;
16665;SDS011;8446;50.998;6.250;2023-12-20T12:22:05;19.77;;;4.97;;
16665;SDS011;8446;50.998;6.250;2023-12-20T12:24:35;20.25;;;5.55;;
16665;SDS011;8446;50.998;6.250;2023-12-20T12:27:02;17.30;;;4.53;;
16665;SDS011;8446;50.998;6.250;2023-12-20T12:29:29;17.35;;;4.45;;
16665;SDS011;8446;50.998;6.250;2023-12-20T12:31:56;14.13;;;3.92;;
16665;SDS011;8446;50.998;6.250;2023-12-20T12:34:24;16.83;;;3.85;;
16665;SDS011;8446;50.998;6.250;2023-12-20T12:36:53;21.30;;;5.20;;
16665;SDS011;8446;50.998;6.250;2023-12-20T12:39:22;11.40;;;4.20;;
16665;SDS011;8446;50.998;6.250;2023-12-20T12:41:53;12.55;;;3.97;;
16665;SDS011;8446;50.998;6.250;2023-12-20T12:44:19;18.45;;;4.38;;
16665;SDS011;8446;50.998;6.250;2023-12-20T12:46:48;12.40;;;5.25;;
16665;SDS011;8446;50.998;6.250;2023-12-20T12:49:16;11.68;;;4.45;;
16665;SDS011;8446;50.998;6.250;2023-12-20T12:51:44;20.77;;;4.15;;
16665;SDS011;8446;50.998;6.250;2023-12-20T12:54:11;23.33;;;4.32;;
16665;SDS011;8446;50.998;6.250;2023-12-20T12:56:40;19.35;;;4.10;;
16665;SDS011;8446;50.998;6.250;2023-12-20T12:59:08;16.00;;;3.70;;
16665;SDS011;8446;50.998;6.250;2023-12-20T13:01:34;16.65;;;4.22;;
16665;SDS011;8446;50.998;6.250;2023-12-20T13:04:01;19.38;;;4.93;;
16665;SDS011;8446;50.998;6.250;2023-12-20T13:06:31;15.85;;;5.95;;
16665;SDS011;8446;50.998;6.250;2023-12-20T13:08:59;27.20;;;4.78;;
16665;SDS011;8446;50.998;6.250;2023-12-20T13:11:26;12.70;;;3.55;;
16665;SDS011;8446;50.998;6.250;2023-12-20T13:13:53;10.55;;;4.28;;
16665;SDS011;8446;50.998;6.250;2023-12-20T13:16:19;16.90;;;3.25;;
16665;SDS011;8446;50.998;6.250;2023-12-20T13:18:46;15.40;;;3.70;;
16665;SDS011;8446;50.998;6.250;2023-12-20T13:21:13;14.20;;;4.55;;
16665;SDS011;8446;50.998;6.250;2023-12-20T13:23:40;14.60;;;4.40;;
16665;SDS011;8446;50.998;6.250;2023-12-20T13:26:08;11.82;;;4.25;;
16665;SDS011;8446;50.998;6.250;2023-12-20T13:28:34;20.40;;;4.97;;
16665;SDS011;8446;50.998;6.250;2023-12-20T13:31:01;13.07;;;5.70;;
16665;SDS011;8446;50.998;6.250;2023-12-20T13:33:28;12.82;;;5.05;;
16665;SDS011;8446;50.998;6.250;2023-12-20T13:35:55;22.20;;;5.97;;
16665;SDS011;8446;50.998;6.250;2023-12-20T13:38:23;11.60;;;4.70;;
16665;SDS011;8446;50.998;6.250;2023-12-20T13:40:50;15.13;;;4.15;;
16665;SDS011;8446;50.998;6.250;2023-12-20T13:43:18;10.43;;;4.70;;
16665;SDS011;8446;50.998;6.250;2023-12-20T13:45:46;12.73;;;4.40;;
16665;SDS011;8446;50.998;6.250;2023-12-20T13:48:13;8.60;;;3.92;;
16665;SDS011;8446;50.998;6.250;2023-12-20T13:50:40;15.40;;;4.05;;
16665;SDS011;8446;50.998;6.250;2023-12-20T13:53:07;12.38;;;4.10;;
16665;SDS011;8446;50.998;6.250;2023-12-20T13:55:34;10.77;;;3.95;;
16665;SDS011;8446;50.998;6.250;2023-12-20T13:58:00;14.70;;;4.03;;
16665;SDS011;8446;50.998;6.250;2023-12-20T14:00:29;10.55;;;4.30;;
16665;SDS011;8446;50.998;6.250;2023-12-20T14:02:55;12.05;;;4.25;;
16665;SDS011;8446;50.998;6.250;2023-12-20T14:05:23;7.38;;;2.20;;
16665;SDS011;8446;50.998;6.250;2023-12-20T14:07:51;14.13;;;3.73;;
16665;SDS011;8446;50.998;6.250;2023-12-20T14:10:18;18.00;;;4.10;;
16665;SDS011;8446;50.998;6.250;2023-12-20T14:12:45;19.10;;;4.97;;
16665;SDS011;8446;50.998;6.250;2023-12-20T14:15:12;10.98;;;4.00;;
16665;SDS011;8446;50.998;6.250;2023-12-20T14:17:40;17.60;;;3.92;;
16665;SDS011;8446;50.998;6.250;2023-12-20T14:20:08;14.03;;;4.60;;
16665;SDS011;8446;50.998;6.250;2023-12-20T14:22:37;21.77;;;3.80;;
16665;SDS011;8446;50.998;6.250;2023-12-20T14:25:10;14.63;;;4.05;;
16665;SDS011;8446;50.998;6.250;2023-12-20T14:27:37;5.28;;;3.22;;
16665;SDS011;8446;50.998;6.250;2023-12-20T14:30:04;13.48;;;3.45;;
16665;SDS011;8446;50.998;6.250;2023-12-20T14:32:34;14.27;;;3.85;;
16665;SDS011;8446;50.998;6.250;2023-12-20T14:35:03;7.13;;;3.40;;
16665;SDS011;8446;50.998;6.250;2023-12-20T14:37:31;14.82;;;4.13;;
16665;SDS011;8446;50.998;6.250;2023-12-20T14:39:58;11.80;;;4.30;;
16665;SDS011;8446;50.998;6.250;2023-12-20T14:42:25;16.83;;;3.30;;
16665;SDS011;8446;50.998;6.250;2023-12-20T14:44:51;10.60;;;3.42;;
16665;SDS011;8446;50.998;6.250;2023-12-20T14:47:19;21.52;;;3.25;;
16665;SDS011;8446;50.998;6.250;2023-12-20T14:49:46;10.48;;;3.17;;